sensor_id;sensor_type;location;lat;lon;timestamp;P1;durP1;ratioP1;P2;durP2;ratioP2
70927;SDS011;58587;53.034;18.576;2023-03-16T06:43:33;24.67;;;8.40;;
70927;SDS011;58587;53.034;18.576;2023-03-16T06:45:59;20.80;;;8.13;;
70927;SDS011;58587;53.034;18.576;2023-03-16T06:48:25;26.03;;;8.87;;
70927;SDS011;58587;53.034;18.576;2023-03-16T06:50:50;26.38;;;8.98;;
70927;SDS011;58587;53.034;18.576;2023-03-16T06:53:16;27.20;;;9.40;;
70927;SDS011;58587;53.034;18.576;2023-03-16T06:55:41;16.97;;;8.00;;
70927;SDS011;58587;53.034;18.576;2023-03-16T06:58:06;17.03;;;8.13;;
70927;SDS011;58587;53.034;18.576;2023-03-16T07:00:32;19.17;;;7.47;;
70927;SDS011;58587;53.034;18.576;2023-03-16T07:02:58;20.75;;;8.60;;
70927;SDS011;58587;53.034;18.576;2023-03-16T07:05:23;21.50;;;7.75;;
70927;SDS011;58587;53.034;18.576;2023-03-16T07:07:49;22.13;;;7.87;;
70927;SDS011;58587;53.034;18.576;2023-03-16T07:10:15;19.90;;;7.53;;
70927;SDS011;58587;53.034;18.576;2023-03-16T07:12:42;21.95;;;7.55;;
70927;SDS011;58587;53.034;18.576;2023-03-16T07:15:08;21.47;;;6.40;;
70927;SDS011;58587;53.034;18.576;2023-03-16T07:17:34;16.40;;;6.85;;
70927;SDS011;58587;53.034;18.576;2023-03-16T07:20:00;18.90;;;7.05;;
70927;SDS011;58587;53.034;18.576;2023-03-16T07:22:29;15.87;;;5.97;;
70927;SDS011;58587;53.034;18.576;2023-03-16T07:24:54;22.02;;;7.28;;
70927;SDS011;58587;53.034;18.576;2023-03-16T07:27:21;13.70;;;4.77;;
70927;SDS011;58587;53.034;18.576;2023-03-16T07:29:48;13.48;;;5.13;;
70927;SDS011;58587;53.034;18.576;2023-03-16T07:32:13;16.30;;;5.93;;
70927;SDS011;58587;53.034;18.576;2023-03-16T07:34:39;14.23;;;4.00;;
70927;SDS011;58587;53.034;18.576;2023-03-16T07:37:06;12.13;;;3.50;;
70927;SDS011;58587;53.034;18.576;2023-03-16T07:39:32;12.25;;;3.95;;
70927;SDS011;58587;53.034;18.576;2023-03-16T07:41:58;9.60;;;3.37;;
70927;SDS011;58587;53.034;18.576;2023-03-16T07:44:23;9.93;;;3.90;;
70927;SDS011;58587;53.034;18.576;2023-03-16T07:46:49;9.97;;;3.47;;
70927;SDS011;58587;53.034;18.576;2023-03-16T07:49:15;12.10;;;3.25;;
70927;SDS011;58587;53.034;18.576;2023-03-16T07:51:40;9.18;;;3.25;;
70927;SDS011;58587;53.034;18.576;2023-03-16T07:54:06;8.57;;;3.00;;
70927;SDS011;58587;53.034;18.576;2023-03-16T07:56:31;13.03;;;3.17;;
70927;SDS011;58587;53.034;18.576;2023-03-16T07:58:57;15.63;;;3.30;;
70927;SDS011;58587;53.034;18.576;2023-03-16T08:01:22;8.37;;;2.90;;
70927;SDS011;58587;53.034;18.576;2023-03-16T08:03:48;7.22;;;2.75;;
70927;SDS011;58587;53.034;18.576;2023-03-16T08:06:13;17.90;;;3.80;;
70927;SDS011;58587;53.034;18.576;2023-03-16T08:08:38;13.93;;;4.20;;
70927;SDS011;58587;53.034;18.576;2023-03-16T08:11:04;9.73;;;3.37;;
70927;SDS011;58587;53.034;18.576;2023-03-16T08:13:29;13.20;;;4.47;;
70927;SDS011;58587;53.034;18.576;2023-03-16T08:15:55;18.65;;;3.88;;
70927;SDS011;58587;53.034;18.576;2023-03-16T08:18:22;25.70;;;6.55;;
70927;SDS011;58587;53.034;18.576;2023-03-16T08:20:48;7.25;;;2.63;;
70927;SDS011;58587;53.034;18.576;2023-03-16T08:23:14;7.30;;;2.28;;
70927;SDS011;58587;53.034;18.576;2023-03-16T08:25:40;7.07;;;2.57;;
70927;SDS011;58587;53.034;18.576;2023-03-16T08:28:05;5.90;;;2.23;;
70927;SDS011;58587;53.034;18.576;2023-03-16T08:30:32;9.82;;;2.40;;
70927;SDS011;58587;53.034;18.576;2023-03-16T08:32:59;10.50;;;2.78;;
70927;SDS011;58587;53.034;18.576;2023-03-16T08:35:25;8.73;;;3.55;;
70927;SDS011;58587;53.034;18.576;2023-03-16T08:37:52;8.27;;;2.60;;
70927;SDS011;58587;53.034;18.576;2023-03-16T08:40:18;7.50;;;2.40;;
70927;SDS011;58587;53.034;18.576;2023-03-16T08:42:46;4.88;;;2.45;;
70927;SDS011;58587;53.034;18.576;2023-03-16T08:45:14;11.40;;;2.38;;
70927;SDS011;58587;53.034;18.576;2023-03-16T08:47:39;6.53;;;2.23;;
70927;SDS011;58587;53.034;18.576;2023-03-16T08:50:05;7.53;;;2.10;;
70927;SDS011;58587;53.034;18.576;2023-03-16T08:52:32;12.88;;;2.35;;
70927;SDS011;58587;53.034;18.576;2023-03-16T08:54:58;6.57;;;1.98;;
70927;SDS011;58587;53.034;18.576;2023-03-16T08:57:24;7.50;;;1.58;;
70927;SDS011;58587;53.034;18.576;2023-03-16T08:59:50;6.87;;;1.70;;
70927;SDS011;58587;53.034;18.576;2023-03-16T09:02:15;8.43;;;1.65;;
70927;SDS011;58587;53.034;18.576;2023-03-16T09:04:40;4.93;;;1.50;;
70927;SDS011;58587;53.034;18.576;2023-03-16T09:07:06;9.03;;;1.97;;
70927;SDS011;58587;53.034;18.576;2023-03-16T09:09:32;8.52;;;3.45;;
70927;SDS011;58587;53.034;18.576;2023-03-16T09:11:58;7.20;;;1.43;;
70927;SDS011;58587;53.034;18.576;2023-03-16T09:14:24;8.45;;;3.28;;
70927;SDS011;58587;53.034;18.576;2023-03-16T09:16:49;5.60;;;1.38;;
70927;SDS011;58587;53.034;18.576;2023-03-16T09:19:16;4.47;;;1.17;;
70927;SDS011;58587;53.034;18.576;2023-03-16T09:21:42;4.80;;;1.20;;
70927;SDS011;58587;53.034;18.576;2023-03-16T09:24:08;7.13;;;1.40;;
70927;SDS011;58587;53.034;18.576;2023-03-16T09:26:34;8.00;;;1.55;;
70927;SDS011;58587;53.034;18.576;2023-03-16T09:29:00;7.30;;;1.63;;
70927;SDS011;58587;53.034;18.576;2023-03-16T09:31:26;6.40;;;1.52;;
70927;SDS011;58587;53.034;18.576;2023-03-16T09:33:51;4.23;;;1.30;;
70927;SDS011;58587;53.034;18.576;2023-03-16T09:36:16;4.50;;;1.80;;
70927;SDS011;58587;53.034;18.576;2023-03-16T09:38:42;5.73;;;1.60;;
70927;SDS011;58587;53.034;18.576;2023-03-16T09:46:40;6.75;;;1.90;;
70927;SDS011;58587;53.034;18.576;2023-03-16T09:49:09;9.27;;;2.03;;
70927;SDS011;58587;53.034;18.576;2023-03-16T09:54:19;7.93;;;2.10;;
70927;SDS011;58587;53.034;18.576;2023-03-16T09:56:48;7.38;;;2.17;;
70927;SDS011;58587;53.034;18.576;2023-03-16T09:59:16;7.38;;;2.00;;
70927;SDS011;58587;53.034;18.576;2023-03-16T10:04:33;7.27;;;2.13;;
70927;SDS011;58587;53.034;18.576;2023-03-16T10:12:37;5.70;;;1.90;;
70927;SDS011;58587;53.034;18.576;2023-03-16T10:15:08;6.50;;;2.33;;
70927;SDS011;58587;53.034;18.576;2023-03-16T10:17:43;13.13;;;3.10;;
70927;SDS011;58587;53.034;18.576;2023-03-16T10:20:14;5.57;;;2.00;;
70927;SDS011;58587;53.034;18.576;2023-03-16T10:22:46;7.32;;;1.75;;
70927;SDS011;58587;53.034;18.576;2023-03-16T10:25:22;7.25;;;2.10;;
70927;SDS011;58587;53.034;18.576;2023-03-16T10:27:54;6.28;;;2.10;;
70927;SDS011;58587;53.034;18.576;2023-03-16T10:32:52;8.75;;;2.15;;
70927;SDS011;58587;53.034;18.576;2023-03-16T10:35:35;4.88;;;2.03;;
70927;SDS011;58587;53.034;18.576;2023-03-16T10:38:08;7.53;;;2.47;;
70927;SDS011;58587;53.034;18.576;2023-03-16T10:43:41;8.00;;;2.30;;
70927;SDS011;58587;53.034;18.576;2023-03-16T10:46:08;7.45;;;2.20;;
70927;SDS011;58587;53.034;18.576;2023-03-16T10:48:36;5.97;;;2.70;;
70927;SDS011;58587;53.034;18.576;2023-03-16T10:51:02;9.00;;;3.25;;
70927;SDS011;58587;53.034;18.576;2023-03-16T10:53:37;10.35;;;3.72;;
70927;SDS011;58587;53.034;18.576;2023-03-16T10:56:10;6.30;;;2.40;;
70927;SDS011;58587;53.034;18.576;2023-03-16T10:58:38;9.50;;;4.30;;
70927;SDS011;58587;53.034;18.576;2023-03-16T11:01:25;9.30;;;2.20;;
70927;SDS011;58587;53.034;18.576;2023-03-16T11:03:52;7.22;;;2.10;;
70927;SDS011;58587;53.034;18.576;2023-03-16T11:06:26;7.07;;;2.00;;
70927;SDS011;58587;53.034;18.576;2023-03-16T11:09:01;5.78;;;2.50;;
70927;SDS011;58587;53.034;18.576;2023-03-16T11:11:32;2.97;;;1.50;;
70927;SDS011;58587;53.034;18.576;2023-03-16T11:13:59;7.47;;;3.13;;
70927;SDS011;58587;53.034;18.576;2023-03-16T11:16:33;7.95;;;2.30;;
70927;SDS011;58587;53.034;18.576;2023-03-16T11:19:03;7.63;;;2.50;;
70927;SDS011;58587;53.034;18.576;2023-03-16T11:21:50;7.70;;;2.63;;
70927;SDS011;58587;53.034;18.576;2023-03-16T11:24:37;4.57;;;1.90;;
70927;SDS011;58587;53.034;18.576;2023-03-16T11:29:57;4.80;;;2.03;;
70927;SDS011;58587;53.034;18.576;2023-03-16T11:32:30;5.90;;;2.05;;
70927;SDS011;58587;53.034;18.576;2023-03-16T11:35:00;7.50;;;3.47;;
70927;SDS011;58587;53.034;18.576;2023-03-16T11:42:47;8.20;;;4.22;;
70927;SDS011;58587;53.034;18.576;2023-03-16T11:45:35;8.25;;;2.90;;
70927;SDS011;58587;53.034;18.576;2023-03-16T11:51:04;4.13;;;2.00;;
70927;SDS011;58587;53.034;18.576;2023-03-16T11:53:46;10.33;;;2.40;;
70927;SDS011;58587;53.034;18.576;2023-03-16T11:56:34;5.88;;;2.58;;
70927;SDS011;58587;53.034;18.576;2023-03-16T11:59:16;9.32;;;3.50;;
70927;SDS011;58587;53.034;18.576;2023-03-16T12:04:29;12.73;;;4.07;;
70927;SDS011;58587;53.034;18.576;2023-03-16T12:13:07;5.43;;;2.33;;
70927;SDS011;58587;53.034;18.576;2023-03-16T12:15:46;5.32;;;2.58;;
70927;SDS011;58587;53.034;18.576;2023-03-16T12:18:25;8.23;;;2.83;;
70927;SDS011;58587;53.034;18.576;2023-03-16T12:21:04;6.10;;;1.40;;
70927;SDS011;58587;53.034;18.576;2023-03-16T12:26:22;4.57;;;2.78;;
70927;SDS011;58587;53.034;18.576;2023-03-16T12:28:50;5.30;;;2.65;;
70927;SDS011;58587;53.034;18.576;2023-03-16T12:31:18;11.75;;;3.58;;
70927;SDS011;58587;53.034;18.576;2023-03-16T12:36:53;7.05;;;1.95;;
70927;SDS011;58587;53.034;18.576;2023-03-16T12:39:41;6.60;;;2.92;;
70927;SDS011;58587;53.034;18.576;2023-03-16T12:45:00;4.47;;;2.35;;
70927;SDS011;58587;53.034;18.576;2023-03-16T12:50:07;5.80;;;2.30;;
70927;SDS011;58587;53.034;18.576;2023-03-16T12:52:43;8.25;;;2.30;;
70927;SDS011;58587;53.034;18.576;2023-03-16T12:57:40;7.25;;;2.05;;
70927;SDS011;58587;53.034;18.576;2023-03-16T13:00:08;3.70;;;1.85;;
70927;SDS011;58587;53.034;18.576;2023-03-16T13:02:38;7.22;;;1.40;;
70927;SDS011;58587;53.034;18.576;2023-03-16T13:07:34;4.22;;;1.98;;
70927;SDS011;58587;53.034;18.576;2023-03-16T13:10:03;3.42;;;1.60;;
70927;SDS011;58587;53.034;18.576;2023-03-16T13:12:34;7.53;;;3.05;;
70927;SDS011;58587;53.034;18.576;2023-03-16T13:17:43;6.63;;;2.33;;
70927;SDS011;58587;53.034;18.576;2023-03-16T13:22:50;5.20;;;1.67;;
70927;SDS011;58587;53.034;18.576;2023-03-16T13:25:43;4.70;;;2.13;;
70927;SDS011;58587;53.034;18.576;2023-03-16T13:28:25;5.80;;;2.20;;
70927;SDS011;58587;53.034;18.576;2023-03-16T13:30:53;6.60;;;1.40;;
70927;SDS011;58587;53.034;18.576;2023-03-16T13:33:19;1.53;;;0.77;;
70927;SDS011;58587;53.034;18.576;2023-03-16T13:35:50;3.45;;;1.02;;
70927;SDS011;58587;53.034;18.576;2023-03-16T13:38:17;2.35;;;0.55;;
70927;SDS011;58587;53.034;18.576;2023-03-16T13:40:50;2.65;;;1.10;;
70927;SDS011;58587;53.034;18.576;2023-03-16T13:43:21;6.80;;;2.10;;
70927;SDS011;58587;53.034;18.576;2023-03-16T13:45:48;5.25;;;1.77;;
70927;SDS011;58587;53.034;18.576;2023-03-16T13:48:15;8.82;;;3.00;;
70927;SDS011;58587;53.034;18.576;2023-03-16T13:50:42;9.98;;;2.00;;
70927;SDS011;58587;53.034;18.576;2023-03-16T13:53:27;8.00;;;3.40;;
70927;SDS011;58587;53.034;18.576;2023-03-16T13:55:54;15.50;;;7.22;;
70927;SDS011;58587;53.034;18.576;2023-03-16T13:58:27;10.05;;;5.68;;
70927;SDS011;58587;53.034;18.576;2023-03-16T14:00:56;5.32;;;3.33;;
70927;SDS011;58587;53.034;18.576;2023-03-16T14:03:22;8.85;;;3.95;;
70927;SDS011;58587;53.034;18.576;2023-03-16T14:05:54;17.00;;;10.73;;
70927;SDS011;58587;53.034;18.576;2023-03-16T14:08:22;6.28;;;3.10;;
70927;SDS011;58587;53.034;18.576;2023-03-16T14:10:48;9.35;;;4.47;;
70927;SDS011;58587;53.034;18.576;2023-03-16T14:15:53;7.13;;;3.60;;
70927;SDS011;58587;53.034;18.576;2023-03-16T14:18:22;3.73;;;1.77;;
70927;SDS011;58587;53.034;18.576;2023-03-16T14:20:51;2.47;;;1.20;;
70927;SDS011;58587;53.034;18.576;2023-03-16T14:23:22;5.47;;;3.45;;
70927;SDS011;58587;53.034;18.576;2023-03-16T14:25:49;15.52;;;6.93;;
70927;SDS011;58587;53.034;18.576;2023-03-16T14:28:18;5.97;;;2.25;;
70927;SDS011;58587;53.034;18.576;2023-03-16T14:30:50;7.87;;;3.17;;
70927;SDS011;58587;53.034;18.576;2023-03-16T14:33:24;7.50;;;2.28;;
70927;SDS011;58587;53.034;18.576;2023-03-16T14:35:53;12.75;;;4.05;;
70927;SDS011;58587;53.034;18.576;2023-03-16T14:38:30;6.65;;;2.53;;
70927;SDS011;58587;53.034;18.576;2023-03-16T14:41:42;4.72;;;1.33;;
70927;SDS011;58587;53.034;18.576;2023-03-16T14:43:56;6.07;;;2.20;;
70927;SDS011;58587;53.034;18.576;2023-03-16T14:46:36;10.30;;;4.18;;
70927;SDS011;58587;53.034;18.576;2023-03-16T14:49:08;4.72;;;1.50;;
70927;SDS011;58587;53.034;18.576;2023-03-16T14:51:42;5.75;;;2.00;;
70927;SDS011;58587;53.034;18.576;2023-03-16T14:54:16;9.10;;;2.50;;
70927;SDS011;58587;53.034;18.576;2023-03-16T14:56:46;8.07;;;3.00;;
70927;SDS011;58587;53.034;18.576;2023-03-16T14:59:16;12.00;;;4.07;;
70927;SDS011;58587;53.034;18.576;2023-03-16T15:01:42;14.15;;;6.53;;
70927;SDS011;58587;53.034;18.576;2023-03-16T15:04:09;7.75;;;2.45;;
70927;SDS011;58587;53.034;18.576;2023-03-16T15:06:38;6.85;;;3.42;;
70927;SDS011;58587;53.034;18.576;2023-03-16T15:09:04;7.33;;;2.33;;
70927;SDS011;58587;53.034;18.576;2023-03-16T15:11:30;14.10;;;5.07;;
70927;SDS011;58587;53.034;18.576;2023-03-16T15:13:56;7.78;;;3.05;;
70927;SDS011;58587;53.034;18.576;2023-03-16T15:16:39;69.85;;;20.63;;
70927;SDS011;58587;53.034;18.576;2023-03-16T15:19:06;8.18;;;3.67;;
70927;SDS011;58587;53.034;18.576;2023-03-16T15:21:32;4.45;;;1.55;;
70927;SDS011;58587;53.034;18.576;2023-03-16T15:23:58;2.63;;;1.17;;
70927;SDS011;58587;53.034;18.576;2023-03-16T15:26:24;7.87;;;4.40;;
70927;SDS011;58587;53.034;18.576;2023-03-16T15:28:52;4.97;;;2.25;;
70927;SDS011;58587;53.034;18.576;2023-03-16T15:31:18;4.28;;;2.15;;
70927;SDS011;58587;53.034;18.576;2023-03-16T15:33:43;12.53;;;5.57;;
70927;SDS011;58587;53.034;18.576;2023-03-16T15:36:13;6.80;;;2.73;;
70927;SDS011;58587;53.034;18.576;2023-03-16T15:38:42;5.60;;;2.30;;
70927;SDS011;58587;53.034;18.576;2023-03-16T15:41:10;8.15;;;4.10;;
70927;SDS011;58587;53.034;18.576;2023-03-16T15:43:36;9.00;;;4.30;;
70927;SDS011;58587;53.034;18.576;2023-03-16T15:46:02;8.85;;;5.85;;
70927;SDS011;58587;53.034;18.576;2023-03-16T15:48:29;4.78;;;2.88;;
70927;SDS011;58587;53.034;18.576;2023-03-16T15:50:56;21.42;;;11.73;;
70927;SDS011;58587;53.034;18.576;2023-03-16T15:55:50;5.65;;;2.83;;
70927;SDS011;58587;53.034;18.576;2023-03-16T15:58:21;2.47;;;1.42;;
70927;SDS011;58587;53.034;18.576;2023-03-16T16:00:49;4.00;;;1.60;;
70927;SDS011;58587;53.034;18.576;2023-03-16T16:03:16;2.65;;;1.13;;
70927;SDS011;58587;53.034;18.576;2023-03-16T16:05:41;3.33;;;1.48;;
70927;SDS011;58587;53.034;18.576;2023-03-16T16:08:07;3.40;;;1.40;;
70927;SDS011;58587;53.034;18.576;2023-03-16T16:10:33;2.17;;;1.40;;
70927;SDS011;58587;53.034;18.576;2023-03-16T16:12:58;3.67;;;1.83;;
70927;SDS011;58587;53.034;18.576;2023-03-16T16:15:43;9.90;;;4.40;;
70927;SDS011;58587;53.034;18.576;2023-03-16T16:18:44;4.87;;;2.60;;
70927;SDS011;58587;53.034;18.576;2023-03-16T16:21:04;3.65;;;1.73;;
70927;SDS011;58587;53.034;18.576;2023-03-16T16:23:30;2.28;;;0.98;;
70927;SDS011;58587;53.034;18.576;2023-03-16T16:26:00;2.65;;;1.15;;
70927;SDS011;58587;53.034;18.576;2023-03-16T16:28:29;3.05;;;1.10;;
70927;SDS011;58587;53.034;18.576;2023-03-16T16:30:56;1.77;;;0.87;;
70927;SDS011;58587;53.034;18.576;2023-03-16T16:35:58;1.90;;;0.90;;
70927;SDS011;58587;53.034;18.576;2023-03-16T16:38:25;2.17;;;0.75;;
70927;SDS011;58587;53.034;18.576;2023-03-16T16:40:51;2.20;;;0.90;;
70927;SDS011;58587;53.034;18.576;2023-03-16T16:46:12;3.05;;;0.80;;
70927;SDS011;58587;53.034;18.576;2023-03-16T16:49:40;4.95;;;2.08;;
70927;SDS011;58587;53.034;18.576;2023-03-16T16:51:39;3.90;;;1.50;;
70927;SDS011;58587;53.034;18.576;2023-03-16T16:54:15;3.30;;;1.60;;
70927;SDS011;58587;53.034;18.576;2023-03-16T16:56:43;4.13;;;1.45;;
70927;SDS011;58587;53.034;18.576;2023-03-16T17:01:47;2.28;;;0.90;;
70927;SDS011;58587;53.034;18.576;2023-03-16T17:04:24;2.13;;;0.93;;
70927;SDS011;58587;53.034;18.576;2023-03-16T17:06:52;2.80;;;0.93;;
70927;SDS011;58587;53.034;18.576;2023-03-16T17:09:23;5.80;;;1.10;;
70927;SDS011;58587;53.034;18.576;2023-03-16T17:11:50;2.15;;;1.33;;
70927;SDS011;58587;53.034;18.576;2023-03-16T17:14:21;4.10;;;1.55;;
70927;SDS011;58587;53.034;18.576;2023-03-16T17:16:48;5.50;;;1.73;;
70927;SDS011;58587;53.034;18.576;2023-03-16T17:19:18;2.53;;;1.20;;
70927;SDS011;58587;53.034;18.576;2023-03-16T17:21:47;3.30;;;1.60;;
70927;SDS011;58587;53.034;18.576;2023-03-16T17:24:13;2.60;;;1.20;;
70927;SDS011;58587;53.034;18.576;2023-03-16T17:26:45;3.53;;;1.47;;
70927;SDS011;58587;53.034;18.576;2023-03-16T17:29:15;7.40;;;2.08;;
70927;SDS011;58587;53.034;18.576;2023-03-16T17:31:45;16.77;;;6.68;;
70927;SDS011;58587;53.034;18.576;2023-03-16T17:36:44;11.45;;;4.88;;
70927;SDS011;58587;53.034;18.576;2023-03-16T17:39:20;10.88;;;4.38;;
70927;SDS011;58587;53.034;18.576;2023-03-16T17:41:54;29.27;;;10.43;;
70927;SDS011;58587;53.034;18.576;2023-03-16T17:44:21;28.65;;;13.82;;
70927;SDS011;58587;53.034;18.576;2023-03-16T17:46:48;25.13;;;8.03;;
70927;SDS011;58587;53.034;18.576;2023-03-16T17:49:14;18.27;;;6.60;;
70927;SDS011;58587;53.034;18.576;2023-03-16T17:51:44;28.48;;;8.80;;
70927;SDS011;58587;53.034;18.576;2023-03-16T17:54:10;40.10;;;11.85;;
70927;SDS011;58587;53.034;18.576;2023-03-16T17:56:36;19.60;;;5.88;;
70927;SDS011;58587;53.034;18.576;2023-03-16T17:59:11;15.97;;;4.83;;
70927;SDS011;58587;53.034;18.576;2023-03-16T18:01:40;7.13;;;3.42;;
70927;SDS011;58587;53.034;18.576;2023-03-16T18:04:15;8.52;;;2.60;;
70927;SDS011;58587;53.034;18.576;2023-03-16T18:06:42;19.33;;;9.40;;
70927;SDS011;58587;53.034;18.576;2023-03-16T18:09:11;22.02;;;9.80;;
70927;SDS011;58587;53.034;18.576;2023-03-16T18:11:40;56.95;;;17.23;;
70927;SDS011;58587;53.034;18.576;2023-03-16T18:14:21;57.55;;;18.17;;
70927;SDS011;58587;53.034;18.576;2023-03-16T18:17:02;38.92;;;15.32;;
70927;SDS011;58587;53.034;18.576;2023-03-16T18:19:48;24.57;;;11.73;;
70927;SDS011;58587;53.034;18.576;2023-03-16T18:22:17;70.25;;;22.52;;
70927;SDS011;58587;53.034;18.576;2023-03-16T18:24:44;80.63;;;25.70;;
70927;SDS011;58587;53.034;18.576;2023-03-16T18:27:11;81.43;;;25.77;;
70927;SDS011;58587;53.034;18.576;2023-03-16T18:29:36;77.93;;;26.85;;
70927;SDS011;58587;53.034;18.576;2023-03-16T18:32:01;71.83;;;25.10;;
70927;SDS011;58587;53.034;18.576;2023-03-16T18:34:28;51.15;;;18.05;;
70927;SDS011;58587;53.034;18.576;2023-03-16T18:36:57;26.63;;;10.77;;
70927;SDS011;58587;53.034;18.576;2023-03-16T18:39:24;25.55;;;9.32;;
70927;SDS011;58587;53.034;18.576;2023-03-16T18:41:51;60.13;;;19.92;;
70927;SDS011;58587;53.034;18.576;2023-03-16T18:44:17;117.47;;;36.50;;
70927;SDS011;58587;53.034;18.576;2023-03-16T18:46:44;91.70;;;31.67;;
70927;SDS011;58587;53.034;18.576;2023-03-16T18:49:33;85.40;;;29.95;;
70927;SDS011;58587;53.034;18.576;2023-03-16T18:52:00;84.70;;;37.73;;
70927;SDS011;58587;53.034;18.576;2023-03-16T18:54:30;102.72;;;47.35;;
70927;SDS011;58587;53.034;18.576;2023-03-16T18:56:59;114.43;;;53.65;;
70927;SDS011;58587;53.034;18.576;2023-03-16T18:59:24;134.97;;;61.10;;
70927;SDS011;58587;53.034;18.576;2023-03-16T19:01:50;142.03;;;65.80;;
70927;SDS011;58587;53.034;18.576;2023-03-16T19:04:22;145.15;;;65.60;;
70927;SDS011;58587;53.034;18.576;2023-03-16T19:06:50;141.07;;;62.85;;
70927;SDS011;58587;53.034;18.576;2023-03-16T19:09:30;139.65;;;59.78;;
70927;SDS011;58587;53.034;18.576;2023-03-16T19:11:56;164.43;;;66.30;;
70927;SDS011;58587;53.034;18.576;2023-03-16T19:16:52;237.80;;;90.20;;
70927;SDS011;58587;53.034;18.576;2023-03-16T19:19:19;243.40;;;96.63;;
70927;SDS011;58587;53.034;18.576;2023-03-16T19:21:46;283.73;;;112.00;;
70927;SDS011;58587;53.034;18.576;2023-03-16T19:24:21;322.25;;;123.30;;
70927;SDS011;58587;53.034;18.576;2023-03-16T19:26:48;317.67;;;123.70;;
70927;SDS011;58587;53.034;18.576;2023-03-16T19:29:15;337.30;;;134.95;;
70927;SDS011;58587;53.034;18.576;2023-03-16T19:31:42;366.17;;;141.35;;
70927;SDS011;58587;53.034;18.576;2023-03-16T19:34:14;367.37;;;144.47;;
70927;SDS011;58587;53.034;18.576;2023-03-16T19:36:41;360.85;;;141.32;;
70927;SDS011;58587;53.034;18.576;2023-03-16T19:39:07;344.07;;;137.80;;
70927;SDS011;58587;53.034;18.576;2023-03-16T19:41:34;361.52;;;146.75;;
70927;SDS011;58587;53.034;18.576;2023-03-16T19:44:03;428.17;;;163.48;;
70927;SDS011;58587;53.034;18.576;2023-03-16T19:46:32;462.65;;;172.85;;
70927;SDS011;58587;53.034;18.576;2023-03-16T19:48:58;419.57;;;162.37;;
70927;SDS011;58587;53.034;18.576;2023-03-16T19:51:23;439.25;;;162.65;;
70927;SDS011;58587;53.034;18.576;2023-03-16T19:53:50;450.40;;;168.57;;
70927;SDS011;58587;53.034;18.576;2023-03-16T19:56:19;409.77;;;148.45;;
70927;SDS011;58587;53.034;18.576;2023-03-16T19:58:46;370.97;;;138.27;;
70927;SDS011;58587;53.034;18.576;2023-03-16T20:01:18;291.25;;;114.95;;
70927;SDS011;58587;53.034;18.576;2023-03-16T20:03:46;268.00;;;106.25;;
70927;SDS011;58587;53.034;18.576;2023-03-16T20:06:13;267.42;;;105.72;;
70927;SDS011;58587;53.034;18.576;2023-03-16T20:08:40;266.45;;;111.05;;
70927;SDS011;58587;53.034;18.576;2023-03-16T20:11:06;318.77;;;121.37;;
70927;SDS011;58587;53.034;18.576;2023-03-16T20:13:54;337.67;;;124.95;;
70927;SDS011;58587;53.034;18.576;2023-03-16T20:16:24;288.05;;;109.25;;
70927;SDS011;58587;53.034;18.576;2023-03-16T20:18:53;266.60;;;106.93;;
70927;SDS011;58587;53.034;18.576;2023-03-16T20:21:20;278.90;;;108.63;;
70927;SDS011;58587;53.034;18.576;2023-03-16T20:23:46;287.92;;;110.75;;
70927;SDS011;58587;53.034;18.576;2023-03-16T20:26:30;275.87;;;107.03;;
70927;SDS011;58587;53.034;18.576;2023-03-16T20:28:57;267.17;;;101.90;;
70927;SDS011;58587;53.034;18.576;2023-03-16T20:31:23;273.15;;;102.82;;
70927;SDS011;58587;53.034;18.576;2023-03-16T20:33:52;268.48;;;100.38;;
70927;SDS011;58587;53.034;18.576;2023-03-16T20:36:19;325.58;;;111.43;;
70927;SDS011;58587;53.034;18.576;2023-03-16T20:38:45;348.20;;;118.17;;
70927;SDS011;58587;53.034;18.576;2023-03-16T20:41:12;324.85;;;114.07;;
70927;SDS011;58587;53.034;18.576;2023-03-16T20:43:37;293.33;;;107.68;;
70927;SDS011;58587;53.034;18.576;2023-03-16T20:46:03;281.97;;;105.47;;
70927;SDS011;58587;53.034;18.576;2023-03-16T20:48:29;272.45;;;97.63;;
70927;SDS011;58587;53.034;18.576;2023-03-16T20:50:55;260.40;;;93.88;;
70927;SDS011;58587;53.034;18.576;2023-03-16T20:53:22;272.52;;;97.85;;
70927;SDS011;58587;53.034;18.576;2023-03-16T20:55:48;289.38;;;99.47;;
70927;SDS011;58587;53.034;18.576;2023-03-16T20:58:24;274.80;;;97.43;;
70927;SDS011;58587;53.034;18.576;2023-03-16T21:00:52;273.08;;;95.28;;
70927;SDS011;58587;53.034;18.576;2023-03-16T21:03:25;271.07;;;95.87;;
70927;SDS011;58587;53.034;18.576;2023-03-16T21:05:53;275.00;;;93.75;;
70927;SDS011;58587;53.034;18.576;2023-03-16T21:08:20;268.90;;;91.18;;
70927;SDS011;58587;53.034;18.576;2023-03-16T21:10:46;265.97;;;91.97;;
70927;SDS011;58587;53.034;18.576;2023-03-16T21:13:18;272.60;;;91.45;;
70927;SDS011;58587;53.034;18.576;2023-03-16T21:15:47;268.27;;;86.07;;
70927;SDS011;58587;53.034;18.576;2023-03-16T21:18:16;227.63;;;76.65;;
70927;SDS011;58587;53.034;18.576;2023-03-16T21:20:44;218.37;;;73.77;;
70927;SDS011;58587;53.034;18.576;2023-03-16T21:23:12;211.43;;;74.57;;
70927;SDS011;58587;53.034;18.576;2023-03-16T21:25:40;221.70;;;72.75;;
70927;SDS011;58587;53.034;18.576;2023-03-16T21:28:09;207.32;;;68.50;;
70927;SDS011;58587;53.034;18.576;2023-03-16T21:30:37;189.13;;;65.82;;
70927;SDS011;58587;53.034;18.576;2023-03-16T21:33:29;177.23;;;60.67;;
70927;SDS011;58587;53.034;18.576;2023-03-16T21:35:56;188.82;;;61.60;;
70927;SDS011;58587;53.034;18.576;2023-03-16T21:38:22;180.40;;;63.08;;
70927;SDS011;58587;53.034;18.576;2023-03-16T21:40:50;164.95;;;55.80;;
70927;SDS011;58587;53.034;18.576;2023-03-16T21:43:17;163.33;;;53.60;;
70927;SDS011;58587;53.034;18.576;2023-03-16T21:45:42;161.13;;;51.83;;
70927;SDS011;58587;53.034;18.576;2023-03-16T21:48:20;148.10;;;49.85;;
70927;SDS011;58587;53.034;18.576;2023-03-16T21:50:48;136.80;;;44.28;;
70927;SDS011;58587;53.034;18.576;2023-03-16T21:53:18;129.20;;;41.57;;
70927;SDS011;58587;53.034;18.576;2023-03-16T21:55:47;105.40;;;37.42;;
70927;SDS011;58587;53.034;18.576;2023-03-16T21:58:13;106.55;;;36.83;;
70927;SDS011;58587;53.034;18.576;2023-03-16T22:00:39;101.10;;;34.37;;
70927;SDS011;58587;53.034;18.576;2023-03-16T22:03:06;110.68;;;35.00;;
70927;SDS011;58587;53.034;18.576;2023-03-16T22:05:53;104.67;;;34.97;;
70927;SDS011;58587;53.034;18.576;2023-03-16T22:08:21;105.25;;;34.35;;
